Time;durP1;ratioP1;P1;durP2;ratioP2;P2;SDS_P1;SDS_P2;PMS_P1;PMS_P2;Temp;Humidity;BMP_temperature;BMP_pressure;BME280_temperature;BME280_humidity;BME280_pressure;Samples;Min_cycle;Max_cycle;Signal;HPM_P1;HPM_P2
2023/07/02 00:00:54;;;;;;;;;;;16.50;99.90;;;;;;5031503;28;19936;-44
2023/07/02 00:03:21;;;;;;;;;;;16.40;99.90;;;;;;5032211;28;19929;-44
2023/07/02 00:05:49;;;;;;;;;;;16.40;99.90;;;;;;5030755;28;19964;-43
2023/07/02 00:08:16;;;;;;;;;;;16.40;99.90;;;;;;5029000;28;19929;-44
2023/07/02 00:10:44;;;;;;;;;;;16.40;99.90;;;;;;5030821;28;19925;-44
2023/07/02 00:13:10;;;;;;;;;;;16.40;99.90;;;;;;5029251;28;20392;-44
2023/07/02 00:15:37;;;;;;;;;;;16.40;99.90;;;;;;5032337;28;20447;-44
2023/07/02 00:18:05;;;;;;;;;;;16.30;99.90;;;;;;5013860;28;19925;-44
2023/07/02 00:20:34;;;;;;;;;;;16.30;99.90;;;;;;5031226;28;19979;-44
2023/07/02 00:23:01;;;;;;;;;;;16.30;99.90;;;;;;5031020;28;19925;-44
2023/07/02 00:25:28;;;;;;;;;;;16.30;99.90;;;;;;5030979;28;20033;-44
2023/07/02 00:27:54;;;;;;;;;;;16.30;99.90;;;;;;5031163;28;19932;-45
2023/07/02 00:30:21;;;;;;;;;;;16.30;99.90;;;;;;5026449;28;19972;-44
2023/07/02 00:32:48;;;;;;;;;;;16.30;99.90;;;;;;5030767;28;20382;-44
2023/07/02 00:35:16;;;;;;;;;;;16.30;99.90;;;;;;5012178;28;19929;-44
2023/07/02 00:37:42;;;;;;;;;;;16.20;99.90;;;;;;5013529;28;19933;-45
2023/07/02 00:40:10;;;;;;;;;;;16.20;99.90;;;;;;5013211;28;20369;-44
2023/07/02 00:42:36;;;;;;;;;;;16.20;99.90;;;;;;5014110;28;19929;-43
2023/07/02 00:45:03;;;;;;;;;;;16.20;99.90;;;;;;5031299;28;20400;-44
2023/07/02 00:47:30;;;;;;;;;;;16.10;99.90;;;;;;5012615;28;20011;-43
2023/07/02 00:49:57;;;;;;;;;;;16.10;99.90;;;;;;5013865;28;20391;-44
2023/07/02 00:52:25;;;;;;;;;;;16.00;99.90;;;;;;5030295;28;20005;-43
2023/07/02 00:54:52;;;;;;;;;;;16.00;99.90;;;;;;5031295;28;20295;-44
2023/07/02 00:57:19;;;;;;;;;;;15.90;99.90;;;;;;5030740;28;19980;-44
2023/07/02 00:59:45;;;;;;;;;;;15.90;99.90;;;;;;5030884;28;19960;-44
2023/07/02 01:02:13;;;;;;;;;;;15.80;99.90;;;;;;5030358;28;20343;-44
2023/07/02 01:04:39;;;;;;;;;;;15.80;99.90;;;;;;5030183;28;20375;-43
2023/07/02 01:07:09;;;;;;;;;;;15.70;99.90;;;;;;5013605;28;19932;-44
2023/07/02 01:09:37;;;;;;;;;;;15.70;99.90;;;;;;5030649;28;19933;-44
2023/07/02 01:12:04;;;;;;;;;;;15.70;99.90;;;;;;5030862;28;19925;-42
2023/07/02 01:14:31;;;;;;;;;;;15.60;99.90;;;;;;5021046;28;19929;-43
2023/07/02 01:16:58;;;;;;;;;;;15.60;99.90;;;;;;5014347;28;19972;-44
2023/07/02 01:19:33;;;;;;;;;;;15.50;99.90;;;;;;5029818;28;20370;-44
2023/07/02 01:22:00;;;;;;;;;;;15.40;99.90;;;;;;5019595;28;19931;-43
2023/07/02 01:24:27;;;;;;;;;;;15.40;99.90;;;;;;5030295;28;19964;-44
2023/07/02 01:26:55;;;;;;;;;;;15.40;99.90;;;;;;5030633;28;20297;-44
2023/07/02 01:29:22;;;;;;;;;;;15.30;99.90;;;;;;5027298;28;19933;-43
2023/07/02 01:31:48;;;;;;;;;;;15.30;99.90;;;;;;5030194;28;19979;-44
2023/07/02 01:34:15;;;;;;;;;;;15.30;99.90;;;;;;5010342;28;19925;-45
2023/07/02 01:36:43;;;;;;;;;;;15.20;99.90;;;;;;5011645;28;20593;-44
2023/07/02 01:39:10;;;;;;;;;;;15.20;99.90;;;;;;5024164;28;20305;-44
2023/07/02 01:41:38;;;;;;;;;;;15.10;99.90;;;;;;5015289;28;19925;-44
2023/07/02 01:44:05;;;;;;;;;;;15.10;99.90;;;;;;5015711;28;20365;-44
2023/07/02 01:46:32;;;;;;;;;;;15.10;99.90;;;;;;5034214;28;20019;-44
2023/07/02 01:48:58;;;;;;;;;;;15.00;99.90;;;;;;5050047;28;20060;-44
2023/07/02 01:51:25;;;;;;;;;;;15.00;99.90;;;;;;5033850;28;20403;-44
2023/07/02 01:53:53;;;;;;;;;;;15.00;99.90;;;;;;5033535;28;20016;-44
2023/07/02 01:56:19;;;;;;;;;;;14.90;99.90;;;;;;5034382;28;19925;-43
2023/07/02 01:58:46;;;;;;;;;;;14.90;99.90;;;;;;5041111;28;19965;-44
2023/07/02 02:01:13;;;;;;;;;;;14.80;99.90;;;;;;5032877;28;20288;-44
2023/07/02 02:03:39;;;;;;;;;;;14.80;99.90;;;;;;5034769;28;19930;-44
2023/07/02 02:06:06;;;;;;;;;;;14.80;99.90;;;;;;5049868;28;19929;-43
2023/07/02 02:08:33;;;;;;;;;;;14.70;99.90;;;;;;5033532;28;20369;-44
2023/07/02 02:11:01;;;;;;;;;;;14.70;99.90;;;;;;5034771;28;19925;-44
2023/07/02 02:13:28;;;;;;;;;;;14.70;99.90;;;;;;5033644;28;19925;-44
2023/07/02 02:15:55;;;;;;;;;;;14.60;99.90;;;;;;5049862;28;19932;-45
2023/07/02 02:18:21;;;;;;;;;;;14.60;99.90;;;;;;5037558;28;19933;-43
2023/07/02 02:20:48;;;;;;;;;;;14.50;99.90;;;;;;5018911;28;19932;-43
2023/07/02 02:23:15;;;;;;;;;;;14.50;99.90;;;;;;5015781;28;19925;-44
2023/07/02 02:25:41;;;;;;;;;;;14.50;99.90;;;;;;5015827;28;19929;-44
2023/07/02 02:28:09;;;;;;;;;;;14.50;99.90;;;;;;5032101;28;19925;-44
2023/07/02 02:30:36;;;;;;;;;;;14.40;99.90;;;;;;5016254;28;19976;-44
2023/07/02 02:33:03;;;;;;;;;;;14.40;99.90;;;;;;5015855;28;20430;-44
2023/07/02 02:35:29;;;;;;;;;;;14.30;99.90;;;;;;5033191;28;19936;-44
2023/07/02 02:41:08;;;;;;;;;;;14.30;99.90;;;;;;5033628;28;19967;-43
2023/07/02 02:43:36;;;;;;;;;;;14.30;99.90;;;;;;5033911;28;19932;-44
2023/07/02 02:46:02;;;;;;;;;;;14.20;99.90;;;;;;5033607;28;20364;-44
2023/07/02 02:48:29;;;;;;;;;;;14.20;99.90;;;;;;5032225;28;20377;-44
2023/07/02 02:50:56;;;;;;;;;;;14.20;99.90;;;;;;5032504;28;19925;-44
2023/07/02 02:53:22;;;;;;;;;;;14.20;99.90;;;;;;5015012;28;19975;-44
2023/07/02 02:55:49;;;;;;;;;;;14.20;99.90;;;;;;5045919;28;19925;-44
2023/07/02 02:58:16;;;;;;;;;;;14.20;99.90;;;;;;5014858;28;20283;-44
2023/07/02 03:00:45;;;;;;;;;;;14.20;99.90;;;;;;5030117;28;19925;-44
2023/07/02 03:03:12;;;;;;;;;;;14.20;99.90;;;;;;5026230;28;19971;-44
2023/07/02 03:05:39;;;;;;;;;;;14.10;99.90;;;;;;5033163;28;19964;-44
2023/07/02 03:08:06;;;;;;;;;;;14.20;99.90;;;;;;5011724;28;19926;-44
2023/07/02 03:10:32;;;;;;;;;;;14.20;99.90;;;;;;5026575;28;19932;-44
2023/07/02 03:12:59;;;;;;;;;;;14.10;99.90;;;;;;5032115;28;19933;-44
2023/07/02 03:15:26;;;;;;;;;;;14.20;99.90;;;;;;5047883;28;19925;-43
2023/07/02 03:17:54;;;;;;;;;;;14.20;99.90;;;;;;5015006;28;19929;-44
2023/07/02 03:20:21;;;;;;;;;;;14.10;99.90;;;;;;5028485;28;20442;-44
2023/07/02 03:22:47;;;;;;;;;;;14.10;99.90;;;;;;5032512;28;20377;-43
2023/07/02 03:25:14;;;;;;;;;;;14.10;99.90;;;;;;5014843;28;19968;-44
2023/07/02 03:27:41;;;;;;;;;;;14.10;99.90;;;;;;5033404;28;19963;-43
2023/07/02 03:30:08;;;;;;;;;;;14.10;99.90;;;;;;5031405;28;19925;-44
2023/07/02 03:32:35;;;;;;;;;;;14.10;99.90;;;;;;5047411;28;19960;-43
2023/07/02 03:35:03;;;;;;;;;;;14.10;99.90;;;;;;5031997;28;19925;-44
2023/07/02 03:37:30;;;;;;;;;;;14.20;99.90;;;;;;5025975;28;19991;-44
2023/07/02 03:39:58;;;;;;;;;;;14.20;99.90;;;;;;5033088;28;19925;-44
2023/07/02 03:42:25;;;;;;;;;;;14.20;99.90;;;;;;5032263;28;19963;-43
2023/07/02 03:44:51;;;;;;;;;;;14.10;99.90;;;;;;5031582;28;19979;-44
2023/07/02 03:47:19;;;;;;;;;;;14.10;99.90;;;;;;5032027;28;19925;-45
2023/07/02 03:49:45;;;;;;;;;;;14.10;99.90;;;;;;5014508;28;20321;-44
2023/07/02 03:52:14;;;;;;;;;;;14.10;99.90;;;;;;5015322;28;19925;-44
2023/07/02 03:54:40;;;;;;;;;;;14.00;99.90;;;;;;5015277;28;20430;-44
2023/07/02 03:57:07;;;;;;;;;;;14.10;99.90;;;;;;5005657;28;19929;-43
2023/07/02 03:59:34;;;;;;;;;;;14.00;99.90;;;;;;5006953;28;19926;-44
2023/07/02 04:02:01;;;;;;;;;;;14.00;99.90;;;;;;5018308;28;20347;-44
2023/07/02 04:04:28;;;;;;;;;;;14.00;99.90;;;;;;5014361;28;19932;-44
2023/07/02 04:06:54;;;;;;;;;;;14.00;99.90;;;;;;5031120;28;19975;-45
2023/07/02 04:09:22;;;;;;;;;;;14.00;99.90;;;;;;5013042;28;19941;-44
2023/07/02 04:11:49;;;;;;;;;;;14.00;99.90;;;;;;5021646;28;19929;-44
2023/07/02 04:14:16;;;;;;;;;;;13.90;99.90;;;;;;5013964;28;19924;-43
2023/07/02 04:16:43;;;;;;;;;;;13.90;99.90;;;;;;5014406;28;19933;-44
2023/07/02 04:19:10;;;;;;;;;;;13.90;99.90;;;;;;5014213;28;20337;-43
2023/07/02 04:21:37;;;;;;;;;;;13.90;99.90;;;;;;5031091;28;19925;-44
2023/07/02 04:24:04;;;;;;;;;;;13.90;99.90;;;;;;5031458;28;19979;-43
2023/07/02 04:26:32;;;;;;;;;;;14.00;99.90;;;;;;5013573;28;19983;-43
2023/07/02 04:28:58;;;;;;;;;;;14.00;99.90;;;;;;5023875;28;19991;-44
2023/07/02 04:31:26;;;;;;;;;;;14.10;99.90;;;;;;5014020;28;19932;-44
2023/07/02 04:33:52;;;;;;;;;;;14.10;99.90;;;;;;5031201;28;19925;-44
2023/07/02 04:36:19;;;;;;;;;;;14.20;99.90;;;;;;5030120;28;19929;-44
2023/07/02 04:38:46;;;;;;;;;;;14.20;99.90;;;;;;5014202;28;20429;-44
2023/07/02 04:41:12;;;;;;;;;;;14.20;99.90;;;;;;5014041;28;19925;-43
2023/07/02 04:43:41;;;;;;;;;;;14.30;99.90;;;;;;5031225;28;19932;-44
2023/07/02 04:46:08;;;;;;;;;;;14.30;99.90;;;;;;5013227;28;19925;-45
2023/07/02 04:48:34;;;;;;;;;;;14.30;99.90;;;;;;5031185;28;19965;-44
2023/07/02 04:51:01;;;;;;;;;;;14.30;99.90;;;;;;5012882;28;20389;-44
2023/07/02 04:53:28;;;;;;;;;;;14.30;99.90;;;;;;5013086;28;19929;-43
2023/07/02 04:55:54;;;;;;;;;;;14.30;99.90;;;;;;5030440;28;19932;-44
2023/07/02 04:58:21;;;;;;;;;;;14.30;99.90;;;;;;5017755;28;20015;-43
2023/07/02 05:00:49;;;;;;;;;;;14.30;99.90;;;;;;5024051;28;19925;-43
2023/07/02 05:03:16;;;;;;;;;;;14.30;99.90;;;;;;5026903;28;19925;-43
2023/07/02 05:05:42;;;;;;;;;;;14.40;99.90;;;;;;5030054;28;20407;-43
2023/07/02 05:08:09;;;;;;;;;;;14.40;99.90;;;;;;5012377;28;19929;-43
2023/07/02 05:10:36;;;;;;;;;;;14.50;99.90;;;;;;5030417;28;19924;-43
2023/07/02 05:13:02;;;;;;;;;;;14.50;99.90;;;;;;5030379;28;19987;-43
2023/07/02 05:15:29;;;;;;;;;;;14.60;99.90;;;;;;5025720;28;20369;-43
2023/07/02 05:17:57;;;;;;;;;;;14.60;99.90;;;;;;5014777;28;20333;-43
2023/07/02 05:20:24;;;;;;;;;;;14.70;99.90;;;;;;5028295;28;19968;-44
2023/07/02 05:22:50;;;;;;;;;;;14.80;99.90;;;;;;5022684;28;20444;-43
2023/07/02 05:25:17;;;;;;;;;;;14.80;99.90;;;;;;5020731;28;19932;-44
2023/07/02 05:27:44;;;;;;;;;;;14.90;99.90;;;;;;5032407;28;19925;-43
2023/07/02 05:30:11;;;;;;;;;;;15.00;99.90;;;;;;5016296;28;19986;-42
2023/07/02 05:32:39;;;;;;;;;;;15.10;99.90;;;;;;5030217;28;20499;-43
2023/07/02 05:35:07;;;;;;;;;;;15.20;99.90;;;;;;5034222;28;19933;-41
2023/07/02 05:37:34;;;;;;;;;;;15.30;99.90;;;;;;5032678;28;19925;-43
2023/07/02 05:40:01;;;;;;;;;;;15.50;99.90;;;;;;5016464;28;19970;-42
2023/07/02 05:42:27;;;;;;;;;;;15.60;99.90;;;;;;5017012;28;20397;-43
2023/07/02 05:44:54;;;;;;;;;;;15.80;99.90;;;;;;5024073;28;19925;-43
2023/07/02 05:47:21;;;;;;;;;;;15.90;99.90;;;;;;5013044;28;19940;-42
2023/07/02 05:49:47;;;;;;;;;;;16.00;99.90;;;;;;5033867;28;20363;-43
2023/07/02 05:52:15;;;;;;;;;;;16.00;99.90;;;;;;5043461;28;20393;-42
2023/07/02 05:54:42;;;;;;;;;;;16.00;99.90;;;;;;5029707;28;19933;-43
2023/07/02 05:57:09;;;;;;;;;;;16.10;99.90;;;;;;5030902;28;19932;-42
2023/07/02 05:59:35;;;;;;;;;;;16.10;99.90;;;;;;5011719;28;21163;-42
2023/07/02 06:02:02;;;;;;;;;;;16.20;99.90;;;;;;5031860;28;19933;-42
2023/07/02 06:04:29;;;;;;;;;;;16.30;99.90;;;;;;5031899;28;19971;-43
2023/07/02 06:06:56;;;;;;;;;;;16.40;99.90;;;;;;5016295;28;19925;-43
2023/07/02 06:09:24;;;;;;;;;;;16.50;99.90;;;;;;5034499;28;19925;-43
2023/07/02 06:11:51;;;;;;;;;;;16.60;99.90;;;;;;5029000;28;19961;-43
2023/07/02 06:14:18;;;;;;;;;;;16.70;99.90;;;;;;5004379;28;20389;-43
2023/07/02 06:16:44;;;;;;;;;;;16.80;99.90;;;;;;5033890;28;19926;-43
2023/07/02 06:19:11;;;;;;;;;;;16.90;99.90;;;;;;5034272;28;20450;-43
2023/07/02 06:21:38;;;;;;;;;;;17.00;99.90;;;;;;5033338;28;19925;-43
2023/07/02 06:24:05;;;;;;;;;;;17.10;99.90;;;;;;5026021;28;20292;-43
2023/07/02 06:26:33;;;;;;;;;;;17.10;99.90;;;;;;5025613;28;20373;-43
2023/07/02 06:28:59;;;;;;;;;;;17.10;99.90;;;;;;5027852;28;19928;-43
2023/07/02 06:31:26;;;;;;;;;;;17.00;99.90;;;;;;5033119;28;19979;-43
2023/07/02 06:33:53;;;;;;;;;;;17.00;99.90;;;;;;5032861;28;19924;-43
2023/07/02 06:36:20;;;;;;;;;;;17.00;99.90;;;;;;5031678;28;19977;-43
2023/07/02 06:38:46;;;;;;;;;;;16.90;99.90;;;;;;5012927;28;19929;-43
2023/07/02 06:41:13;;;;;;;;;;;16.90;99.90;;;;;;5023442;28;19977;-43
2023/07/02 06:43:42;;;;;;;;;;;16.90;99.90;;;;;;5028505;28;20388;-44
2023/07/02 06:46:10;;;;;;;;;;;17.00;99.90;;;;;;5004550;28;19948;-43
2023/07/02 06:48:37;;;;;;;;;;;17.30;99.90;;;;;;5028136;28;19960;-43
2023/07/02 06:51:04;;;;;;;;;;;17.40;99.90;;;;;;5034568;28;20296;-43
2023/07/02 06:53:30;;;;;;;;;;;17.60;99.90;;;;;;5008540;28;19932;-43
2023/07/02 06:55:57;;;;;;;;;;;17.70;99.90;;;;;;5046934;28;19925;-44
2023/07/02 06:58:24;;;;;;;;;;;17.70;99.90;;;;;;5016061;28;20373;-43
2023/07/02 07:00:52;;;;;;;;;;;17.70;99.90;;;;;;5030326;28;19936;-43
2023/07/02 07:03:18;;;;;;;;;;;17.70;99.90;;;;;;5044642;28;20011;-44
2023/07/02 07:05:45;;;;;;;;;;;17.60;99.90;;;;;;5032722;28;19932;-43
2023/07/02 07:08:12;;;;;;;;;;;17.50;99.90;;;;;;5033092;28;19950;-43
2023/07/02 07:10:38;;;;;;;;;;;17.40;99.90;;;;;;5033052;28;19933;-44
2023/07/02 07:13:06;;;;;;;;;;;17.30;99.90;;;;;;5026342;28;19925;-43
2023/07/02 07:15:33;;;;;;;;;;;17.20;99.90;;;;;;5014048;28;19925;-43
2023/07/02 07:18:01;;;;;;;;;;;17.10;99.90;;;;;;5022169;28;20008;-44
2023/07/02 07:20:28;;;;;;;;;;;17.20;99.90;;;;;;5032758;28;19979;-43
2023/07/02 07:22:54;;;;;;;;;;;17.30;99.90;;;;;;5017931;28;19928;-43
2023/07/02 07:25:21;;;;;;;;;;;17.40;99.90;;;;;;5033284;28;20373;-43
2023/07/02 07:27:48;;;;;;;;;;;17.70;99.90;;;;;;5014927;28;19932;-44
2023/07/02 07:30:15;;;;;;;;;;;17.90;99.90;;;;;;5004528;28;19925;-43
2023/07/02 07:32:42;;;;;;;;;;;18.10;99.90;;;;;;5030912;28;20014;-44
2023/07/02 07:35:10;;;;;;;;;;;18.30;99.90;;;;;;5019897;28;19949;-44
2023/07/02 07:37:36;;;;;;;;;;;18.40;99.90;;;;;;5022891;28;19925;-43
2023/07/02 07:40:03;;;;;;;;;;;18.30;99.90;;;;;;5014677;28;19925;-43
2023/07/02 07:42:30;;;;;;;;;;;18.40;99.90;;;;;;5013396;28;19939;-43
2023/07/02 07:44:57;;;;;;;;;;;18.40;99.90;;;;;;5017599;28;19925;-43
2023/07/02 07:47:25;;;;;;;;;;;18.40;99.90;;;;;;5028642;28;20402;-43
2023/07/02 07:49:52;;;;;;;;;;;18.40;99.90;;;;;;5030060;28;19932;-44
2023/07/02 07:52:20;;;;;;;;;;;18.40;99.90;;;;;;5023535;28;19933;-44
2023/07/02 07:54:47;;;;;;;;;;;18.50;99.90;;;;;;5022227;28;19925;-43
2023/07/02 07:57:13;;;;;;;;;;;18.50;99.90;;;;;;5027396;28;20332;-44
2023/07/02 07:59:40;;;;;;;;;;;18.50;99.90;;;;;;5008746;28;19988;-44
2023/07/02 08:02:07;;;;;;;;;;;18.30;99.90;;;;;;5027531;28;19929;-44
2023/07/02 08:04:33;;;;;;;;;;;18.30;99.90;;;;;;5027635;28;20309;-43
2023/07/02 08:07:00;;;;;;;;;;;18.40;99.90;;;;;;5030841;28;20180;-44
2023/07/02 08:09:28;;;;;;;;;;;18.60;99.90;;;;;;5012433;28;20209;-44
2023/07/02 08:11:55;;;;;;;;;;;18.90;99.90;;;;;;5010852;28;20389;-44
2023/07/02 08:14:22;;;;;;;;;;;19.10;99.90;;;;;;5030742;28;19926;-44
2023/07/02 08:16:48;;;;;;;;;;;19.20;99.90;;;;;;5013325;28;20381;-44
2023/07/02 08:19:15;;;;;;;;;;;19.10;99.90;;;;;;5014246;28;19933;-44
2023/07/02 08:21:42;;;;;;;;;;;19.00;99.90;;;;;;5014334;28;20001;-44
2023/07/02 08:24:08;;;;;;;;;;;19.00;99.90;;;;;;5023947;28;20403;-44
2023/07/02 08:26:37;;;;;;;;;;;19.00;99.90;;;;;;5031165;28;19929;-44
2023/07/02 08:29:03;;;;;;;;;;;19.10;99.90;;;;;;5030773;28;20296;-44
2023/07/02 08:31:30;;;;;;;;;;;19.20;99.90;;;;;;5016180;28;20217;-44
2023/07/02 08:33:57;;;;;;;;;;;19.30;99.90;;;;;;5013244;28;20036;-44
2023/07/02 08:36:24;;;;;;;;;;;19.30;99.90;;;;;;5027994;28;19948;-44
2023/07/02 08:38:50;;;;;;;;;;;19.30;99.90;;;;;;5025633;28;20297;-44
2023/07/02 08:41:17;;;;;;;;;;;19.30;99.90;;;;;;5029656;28;20345;-43
2023/07/02 08:43:45;;;;;;;;;;;19.30;99.90;;;;;;5009634;28;19925;-44
2023/07/02 08:46:12;;;;;;;;;;;19.30;99.90;;;;;;5012082;28;19925;-43
2023/07/02 08:48:38;;;;;;;;;;;19.30;99.90;;;;;;5044668;28;19929;-43
2023/07/02 08:51:05;;;;;;;;;;;19.30;99.90;;;;;;5029427;28;20343;-44
2023/07/02 08:53:33;;;;;;;;;;;19.20;99.70;;;;;;5044175;28;19955;-42
2023/07/02 08:56:00;;;;;;;;;;;19.10;99.80;;;;;;5008378;28;19941;-44
2023/07/02 08:58:27;;;;;;;;;;;19.00;99.90;;;;;;5010056;28;19925;-43
2023/07/02 09:01:08;;;;;;;;;;;18.90;99.90;;;;;;5012262;28;19932;-43
2023/07/02 09:03:36;;;;;;;;;;;18.90;99.90;;;;;;5026548;28;19933;-42
2023/07/02 09:06:03;;;;;;;;;;;18.90;99.90;;;;;;5011143;28;19932;-43
2023/07/02 09:08:30;;;;;;;;;;;18.90;99.90;;;;;;5010340;28;20293;-43
2023/07/02 09:11:06;;;;;;;;;;;18.90;99.90;;;;;;5010298;28;19979;-44
2023/07/02 09:13:33;;;;;;;;;;;19.00;99.90;;;;;;5011376;28;19983;-44
2023/07/02 09:15:59;;;;;;;;;;;19.10;99.90;;;;;;5027933;28;19926;-44
2023/07/02 09:18:28;;;;;;;;;;;19.30;99.90;;;;;;5028524;28;19951;-44
2023/07/02 09:20:55;;;;;;;;;;;19.60;99.70;;;;;;5034652;28;19925;-44
2023/07/02 09:23:21;;;;;;;;;;;19.70;99.90;;;;;;5028430;28;20376;-43
2023/07/02 09:25:48;;;;;;;;;;;19.80;99.00;;;;;;5029081;28;19926;-44
2023/07/02 09:28:15;;;;;;;;;;;20.00;99.80;;;;;;5025329;28;20036;-44
2023/07/02 09:30:50;;;;;;;;;;;20.20;99.90;;;;;;5026428;28;20325;-44
2023/07/02 09:33:16;;;;;;;;;;;20.40;99.70;;;;;;5038969;28;19926;-44
2023/07/02 09:35:44;;;;;;;;;;;20.40;99.40;;;;;;5009596;28;20034;-44
2023/07/02 09:38:11;;;;;;;;;;;20.40;99.90;;;;;;5022784;28;19929;-43
2023/07/02 09:40:38;;;;;;;;;;;20.50;99.70;;;;;;5006473;28;19929;-44
2023/07/02 09:43:05;;;;;;;;;;;20.70;99.10;;;;;;5023128;28;19925;-44
2023/07/02 09:45:32;;;;;;;;;;;20.90;99.00;;;;;;5025176;28;19940;-44
2023/07/02 09:47:58;;;;;;;;;;;21.10;98.50;;;;;;5027279;28;19940;-44
2023/07/02 09:50:25;;;;;;;;;;;21.10;98.80;;;;;;5024701;28;19936;-44
2023/07/02 09:52:53;;;;;;;;;;;21.20;98.70;;;;;;5029899;28;19967;-44
2023/07/02 09:55:20;;;;;;;;;;;21.30;97.70;;;;;;5023736;28;19925;-43
2023/07/02 09:57:47;;;;;;;;;;;21.30;97.00;;;;;;5010845;28;20359;-43
2023/07/02 10:00:14;;;;;;;;;;;21.30;97.40;;;;;;5028964;28;19972;-44
2023/07/02 10:02:41;;;;;;;;;;;21.30;97.10;;;;;;5014634;28;19979;-43
2023/07/02 10:05:07;;;;;;;;;;;21.20;97.10;;;;;;5014249;28;19925;-44
2023/07/02 10:07:34;;;;;;;;;;;21.20;98.00;;;;;;5031621;28;19976;-43
2023/07/02 10:10:02;;;;;;;;;;;21.30;97.10;;;;;;5012905;28;19968;-44
2023/07/02 10:12:29;;;;;;;;;;;21.20;96.70;;;;;;5030957;28;20344;-44
2023/07/02 10:14:56;;;;;;;;;;;21.20;97.10;;;;;;5029036;28;20278;-43
2023/07/02 10:17:27;;;;;;;;;;;21.20;97.10;;;;;;5028176;28;20373;-43
2023/07/02 10:19:54;;;;;;;;;;;21.20;96.40;;;;;;5028814;28;19948;-44
2023/07/02 10:22:20;;;;;;;;;;;21.20;96.60;;;;;;5014639;28;20351;-44
2023/07/02 10:24:54;;;;;;;;;;;21.10;96.70;;;;;;5025789;28;19929;-44
2023/07/02 10:27:22;;;;;;;;;;;21.00;96.10;;;;;;5032853;28;19925;-44
2023/07/02 10:29:52;;;;;;;;;;;21.00;96.80;;;;;;5033030;28;19925;-44
2023/07/02 10:32:26;;;;;;;;;;;21.20;96.50;;;;;;5030141;28;20055;-44
2023/07/02 10:34:53;;;;;;;;;;;21.10;95.30;;;;;;5031692;28;20352;-45
2023/07/02 10:37:20;;;;;;;;;;;21.00;95.90;;;;;;5018642;28;19925;-44
2023/07/02 10:39:46;;;;;;;;;;;21.00;96.50;;;;;;5024906;28;20408;-43
2023/07/02 10:42:13;;;;;;;;;;;21.00;96.00;;;;;;5024167;28;19983;-43
2023/07/02 10:44:50;;;;;;;;;;;21.00;96.30;;;;;;5027534;28;19925;-45
2023/07/02 10:47:16;;;;;;;;;;;21.00;96.30;;;;;;5018518;28;19925;-45
2023/07/02 10:49:43;;;;;;;;;;;20.90;95.20;;;;;;5039538;28;19933;-43
2023/07/02 10:52:09;;;;;;;;;;;20.80;95.80;;;;;;5031450;28;19929;-43
2023/07/02 10:54:40;;;;;;;;;;;20.90;95.40;;;;;;5028999;28;19979;-42
2023/07/02 10:57:07;;;;;;;;;;;21.00;95.20;;;;;;5029730;28;19931;-44
2023/07/02 10:59:34;;;;;;;;;;;21.00;93.80;;;;;;5030600;28;19929;-44
2023/07/02 11:02:03;;;;;;;;;;;21.00;94.00;;;;;;5031431;28;20008;-43
2023/07/02 11:04:30;;;;;;;;;;;21.10;94.60;;;;;;5013627;28;19933;-44
2023/07/02 11:06:56;;;;;;;;;;;21.10;94.20;;;;;;5021833;28;19941;-44
2023/07/02 11:09:24;;;;;;;;;;;21.20;93.90;;;;;;5029360;28;19925;-42
2023/07/02 11:11:54;;;;;;;;;;;21.20;94.20;;;;;;5025610;28;19932;-44
2023/07/02 11:14:27;;;;;;;;;;;21.20;94.90;;;;;;5028079;28;19936;-42
2023/07/02 11:16:55;;;;;;;;;;;21.10;95.10;;;;;;5046250;28;19976;-44
2023/07/02 11:19:23;;;;;;;;;;;21.00;94.90;;;;;;5028960;28;20320;-43
2023/07/02 11:21:52;;;;;;;;;;;21.00;94.90;;;;;;5024020;28;19932;-44
2023/07/02 11:24:27;;;;;;;;;;;21.00;95.40;;;;;;5014568;28;19925;-44
2023/07/02 11:26:53;;;;;;;;;;;21.00;96.00;;;;;;5014872;28;20297;-44
2023/07/02 11:29:20;;;;;;;;;;;21.10;95.40;;;;;;5022209;28;20959;-44
2023/07/02 11:31:47;;;;;;;;;;;21.10;95.00;;;;;;5029988;28;19933;-44
2023/07/02 11:34:13;;;;;;;;;;;21.10;93.50;;;;;;5010051;28;19925;-44
2023/07/02 11:36:41;;;;;;;;;;;21.20;95.10;;;;;;5027840;28;19925;-44
2023/07/02 11:39:08;;;;;;;;;;;21.40;93.30;;;;;;5027657;28;19925;-44
2023/07/02 11:41:38;;;;;;;;;;;21.40;93.40;;;;;;5030869;28;20020;-43
2023/07/02 11:44:05;;;;;;;;;;;21.30;93.90;;;;;;5026861;28;20015;-44
2023/07/02 11:46:32;;;;;;;;;;;21.30;93.20;;;;;;5040729;28;20377;-43
2023/07/02 11:48:59;;;;;;;;;;;21.40;95.40;;;;;;5031716;28;19929;-43
2023/07/02 11:51:26;;;;;;;;;;;21.60;94.70;;;;;;5027642;28;19933;-43
2023/07/02 11:53:54;;;;;;;;;;;21.70;95.00;;;;;;5032364;28;20385;-44
2023/07/02 11:56:21;;;;;;;;;;;21.90;94.70;;;;;;5028521;28;19959;-44
2023/07/02 11:58:47;;;;;;;;;;;21.90;94.30;;;;;;5029455;28;19937;-43
2023/07/02 12:01:14;;;;;;;;;;;21.90;94.20;;;;;;5016285;28;19933;-43
2023/07/02 12:03:41;;;;;;;;;;;21.80;94.30;;;;;;5027042;28;20360;-42
2023/07/02 12:06:07;;;;;;;;;;;21.70;93.70;;;;;;5034999;28;19925;-43
2023/07/02 12:08:34;;;;;;;;;;;21.50;94.40;;;;;;5022795;28;19929;-43
2023/07/02 12:11:02;;;;;;;;;;;21.40;94.40;;;;;;5017287;28;20393;-43
2023/07/02 12:13:29;;;;;;;;;;;21.30;94.10;;;;;;5029944;28;19931;-42
2023/07/02 12:15:55;;;;;;;;;;;21.30;94.20;;;;;;5012027;28;20432;-44
2023/07/02 12:18:22;;;;;;;;;;;21.40;95.00;;;;;;5008669;28;19925;-42
2023/07/02 12:20:49;;;;;;;;;;;21.50;94.30;;;;;;5032124;28;19932;-43
2023/07/02 12:23:15;;;;;;;;;;;21.70;93.90;;;;;;5029136;28;19925;-43
2023/07/02 12:25:42;;;;;;;;;;;22.00;93.10;;;;;;5022270;28;20343;-42
2023/07/02 12:28:10;;;;;;;;;;;22.20;92.60;;;;;;5005836;28;19940;-43
2023/07/02 12:30:37;;;;;;;;;;;22.30;92.70;;;;;;5013054;28;19925;-44
2023/07/02 12:33:04;;;;;;;;;;;22.20;93.80;;;;;;5027215;28;20039;-43
2023/07/02 12:35:30;;;;;;;;;;;22.20;92.30;;;;;;5029152;28;19937;-43
2023/07/02 12:37:57;;;;;;;;;;;22.20;92.20;;;;;;5031089;28;20010;-43
2023/07/02 12:40:24;;;;;;;;;;;22.20;92.30;;;;;;5012220;28;19933;-43
2023/07/02 12:42:50;;;;;;;;;;;22.10;92.60;;;;;;5030584;28;19979;-43
2023/07/02 12:45:18;;;;;;;;;;;22.00;91.20;;;;;;5005771;28;19929;-44
2023/07/02 12:47:45;;;;;;;;;;;21.80;92.00;;;;;;5026294;28;19929;-43
2023/07/02 12:50:12;;;;;;;;;;;21.70;91.00;;;;;;5023632;28;19926;-43
2023/07/02 12:52:38;;;;;;;;;;;21.50;92.90;;;;;;5022094;28;20393;-43
2023/07/02 12:55:05;;;;;;;;;;;21.50;93.00;;;;;;5005097;28;19925;-43
2023/07/02 12:57:32;;;;;;;;;;;21.30;93.10;;;;;;5009159;28;20376;-44
2023/07/02 12:59:59;;;;;;;;;;;21.20;92.80;;;;;;5028539;28;19925;-43
2023/07/02 13:02:27;;;;;;;;;;;21.10;93.40;;;;;;5025924;28;20448;-44
2023/07/02 13:04:54;;;;;;;;;;;21.00;93.40;;;;;;5022442;28;19972;-43
2023/07/02 13:07:21;;;;;;;;;;;21.00;93.30;;;;;;5026621;28;19929;-44
2023/07/02 13:09:48;;;;;;;;;;;21.00;92.90;;;;;;5019968;28;19983;-42
2023/07/02 13:12:15;;;;;;;;;;;21.00;93.20;;;;;;5021857;28;19933;-43
2023/07/02 13:14:41;;;;;;;;;;;21.00;93.10;;;;;;5023392;28;19932;-44
2023/07/02 13:17:08;;;;;;;;;;;21.00;91.50;;;;;;5011488;28;20369;-43
2023/07/02 13:19:36;;;;;;;;;;;21.10;92.20;;;;;;5028194;28;19926;-44
2023/07/02 13:22:03;;;;;;;;;;;21.10;91.40;;;;;;5026686;28;20027;-44
2023/07/02 13:24:33;;;;;;;;;;;21.40;92.70;;;;;;5030738;28;19931;-45
2023/07/02 13:27:00;;;;;;;;;;;21.70;92.40;;;;;;5015885;28;19925;-44
2023/07/02 13:29:27;;;;;;;;;;;22.10;92.00;;;;;;5028478;28;19929;-45
2023/07/02 13:31:54;;;;;;;;;;;22.40;91.20;;;;;;5023757;28;19930;-45
2023/07/02 13:34:20;;;;;;;;;;;22.60;90.90;;;;;;5019813;28;19933;-44
2023/07/02 13:36:49;;;;;;;;;;;22.80;91.10;;;;;;5020880;28;19936;-44
2023/07/02 13:39:15;;;;;;;;;;;23.00;90.00;;;;;;5033103;28;19925;-44
2023/07/02 13:41:42;;;;;;;;;;;23.10;89.30;;;;;;5014280;28;20015;-43
2023/07/02 13:44:09;;;;;;;;;;;23.30;87.40;;;;;;5033635;28;19925;-44
2023/07/02 13:46:36;;;;;;;;;;;23.40;85.30;;;;;;5033648;28;20503;-44
2023/07/02 13:49:02;;;;;;;;;;;23.50;83.50;;;;;;5032717;28;19931;-45
2023/07/02 13:51:29;;;;;;;;;;;23.50;85.60;;;;;;5029917;28;20380;-43
2023/07/02 13:53:57;;;;;;;;;;;23.70;79.60;;;;;;5045850;28;19952;-44
2023/07/02 13:56:24;;;;;;;;;;;23.70;81.80;;;;;;5033689;28;19972;-42
2023/07/02 13:59:04;;;;;;;;;;;23.50;75.10;;;;;;5024198;28;19979;-44
2023/07/02 14:01:32;;;;;;;;;;;23.30;80.20;;;;;;5016154;28;19925;-43
2023/07/02 14:03:58;;;;;;;;;;;23.10;81.20;;;;;;5025765;28;19925;-44
2023/07/02 14:06:25;;;;;;;;;;;23.00;78.90;;;;;;5030362;28;20300;-44
2023/07/02 14:08:52;;;;;;;;;;;23.00;80.00;;;;;;5013247;28;19936;-44
2023/07/02 14:11:19;;;;;;;;;;;23.00;80.30;;;;;;5031006;28;19925;-44
2023/07/02 14:13:45;;;;;;;;;;;22.90;78.80;;;;;;5019044;28;20004;-43
2023/07/02 14:16:13;;;;;;;;;;;22.80;79.60;;;;;;5033348;28;20342;-44
2023/07/02 14:18:40;;;;;;;;;;;22.90;81.60;;;;;;5026447;28;19925;-44